Time;durP1;ratioP1;P1;durP2;ratioP2;P2;SDS_P1;SDS_P2;PMS_P1;PMS_P2;Temp;Humidity;BMP_temperature;BMP_pressure;BME280_temperature;BME280_humidity;BME280_pressure;Samples;Min_cycle;Max_cycle;Signal;HPM_P1;HPM_P2
2022/07/28 00:00:14;;;;;;;8.98;2.50;;;666.00;1280.00;;;;;;5031445;28;20523;-76
2022/07/28 00:02:46;;;;;;;4.22;2.35;;;666.00;1280.00;;;;;;5032610;28;20029;-75
2022/07/28 00:05:12;;;;;;;4.78;2.35;;;665.90;1280.00;;;;;;5021584;28;20037;-77
2022/07/28 00:07:44;;;;;;;5.00;2.35;;;666.00;1305.60;;;;;;5032724;28;20391;-77
2022/07/28 00:10:10;;;;;;;7.80;2.72;;;666.00;1280.00;;;;;;5034136;28;20022;-77
2022/07/28 00:12:36;;;;;;;6.18;2.50;;;666.10;1280.00;;;;;;5034208;28;20113;-77
2022/07/28 00:15:02;;;;;;;5.60;2.55;;;666.20;1280.00;;;;;;5034101;28;20091;-77
2022/07/28 00:17:28;;;;;;;6.53;2.58;;;666.20;1254.40;;;;;;5034323;28;20024;-75
2022/07/28 00:19:54;;;;;;;4.35;2.40;;;666.30;1254.40;;;;;;5033985;28;20033;-77
2022/07/28 00:22:20;;;;;;;8.18;2.90;;;666.40;1280.00;;;;;;5033965;28;20029;-75
2022/07/28 00:24:46;;;;;;;7.10;2.50;;;666.40;1280.00;;;;;;5034037;28;20022;-76
2022/07/28 00:27:13;;;;;;;6.10;2.50;;;666.50;1254.40;;;;;;5033940;28;20475;-77
2022/07/28 00:29:39;;;;;;;10.30;2.70;;;666.50;1254.40;;;;;;5049017;28;20033;-76
2022/07/28 00:32:05;;;;;;;7.30;2.70;;;666.30;1254.40;;;;;;5033693;28;20114;-76
2022/07/28 00:34:31;;;;;;;7.20;2.60;;;666.30;1254.40;;;;;;5033586;28;20108;-75
2022/07/28 00:36:56;;;;;;;8.63;2.47;;;666.40;1254.40;;;;;;5033287;28;20029;-77
2022/07/28 00:39:22;;;;;;;5.68;2.10;;;666.40;1254.40;;;;;;5033948;28;20036;-76
2022/07/28 00:41:49;;;;;;;5.32;2.30;;;666.50;1254.40;;;;;;5033691;28;20096;-75
2022/07/28 00:44:15;;;;;;;5.25;2.75;;;666.50;1254.40;;;;;;5033561;28;20064;-76
2022/07/28 00:46:41;;;;;;;5.93;2.38;;;666.50;1254.40;;;;;;5048485;28;20034;-76
2022/07/28 00:49:07;;;;;;;6.47;2.60;;;666.50;1254.40;;;;;;5031925;28;20462;-77
2022/07/28 00:51:34;;;;;;;5.40;2.55;;;666.50;1254.40;;;;;;5033515;28;20486;-75
2022/07/28 00:53:59;;;;;;;8.68;2.60;;;665.80;1254.40;;;;;;5033206;28;20496;-76
2022/07/28 00:56:26;;;;;;;3.53;2.50;;;666.50;1254.40;;;;;;5033330;28;20064;-76
2022/07/28 00:58:52;;;;;;;5.10;2.25;;;666.50;1254.40;;;;;;5033435;28;20154;-75
2022/07/28 01:01:18;;;;;;;4.00;2.72;;;666.50;1254.40;;;;;;5033200;28;20033;-75
2022/07/28 01:03:49;;;;;;;6.80;2.40;;;666.50;1254.40;;;;;;5033284;28;20030;-75
2022/07/28 01:06:18;;;;;;;7.93;2.47;;;666.50;1254.40;;;;;;5033361;28;20493;-76
2022/07/28 01:09:08;;;;;;;10.07;2.65;;;666.40;1254.40;;;;;;5033341;28;20025;-76
2022/07/28 01:11:59;;;;;;;6.80;2.63;;;666.50;1254.40;;;;;;5033114;28;20022;-77
2022/07/28 01:14:54;;;;;;;5.63;2.10;;;666.40;1254.40;;;;;;5011325;28;20045;-75
2022/07/28 01:17:33;;;;;;;5.60;2.30;;;666.50;1254.40;;;;;;5011198;28;20026;-75
2022/07/28 01:20:15;;;;;;;4.72;2.83;;;691.20;1254.40;;;;;;5011361;28;20040;-75
2022/07/28 01:23:18;;;;;;;11.25;3.05;;;691.30;1254.40;;;;;;5011671;28;20026;-76
2022/07/28 01:25:59;;;;;;;5.40;2.63;;;691.30;1254.40;;;;;;4952571;29;20031;-75
2022/07/28 01:28:48;;;;;;;8.30;2.63;;;691.30;1254.40;;;;;;4952439;29;20039;-76
2022/07/28 01:31:20;;;;;;;8.52;3.05;;;691.30;1254.40;;;;;;4952113;29;20529;-77
2022/07/28 01:33:50;;;;;;;7.30;3.33;;;691.30;1254.40;;;;;;4950528;29;20046;-77
2022/07/28 01:36:21;;;;;;;6.47;2.95;;;691.20;1254.40;;;;;;4952545;29;20036;-75
2022/07/28 01:38:48;;;;;;;7.80;3.30;;;691.30;1254.40;;;;;;4952488;29;20032;-75
2022/07/28 01:41:18;;;;;;;6.93;2.95;;;691.20;1254.40;;;;;;4952556;29;20090;-76
2022/07/28 01:43:55;;;;;;;6.43;3.08;;;691.30;1254.40;;;;;;4950301;29;20027;-77
2022/07/28 01:46:23;;;;;;;6.95;2.78;;;691.30;1254.40;;;;;;4952942;28;20497;-76
2022/07/28 01:48:50;;;;;;;10.68;3.40;;;691.30;1254.40;;;;;;4956462;29;20103;-76
2022/07/28 01:51:17;;;;;;;5.10;2.63;;;666.50;1254.40;;;;;;4962263;28;20082;-76
2022/07/28 01:53:44;;;;;;;11.55;3.10;;;666.50;1280.00;;;;;;4969477;28;20030;-77
2022/07/28 01:56:11;;;;;;;9.20;3.53;;;666.50;1280.00;;;;;;4966013;28;20035;-76
2022/07/28 01:58:38;;;;;;;7.90;3.15;;;666.30;1280.00;;;;;;4969125;28;20019;-76
2022/07/28 02:01:06;;;;;;;8.63;3.08;;;666.40;1280.00;;;;;;5036143;28;20072;-76
2022/07/28 02:03:33;;;;;;;8.98;3.20;;;666.40;1280.00;;;;;;5036389;28;20112;-76
2022/07/28 02:06:01;;;;;;;15.00;3.35;;;666.40;1280.00;;;;;;5036375;28;20017;-76
2022/07/28 02:08:28;;;;;;;8.35;3.30;;;666.30;1305.60;;;;;;5051718;28;20021;-75
2022/07/28 02:13:40;;;;;;;12.65;3.38;;;666.30;1305.60;;;;;;5036234;28;20493;-76
2022/07/28 02:16:09;;;;;;;8.13;3.72;;;666.30;1305.60;;;;;;5036151;28;20116;-76
2022/07/28 02:18:37;;;;;;;11.13;3.47;;;666.30;1305.60;;;;;;5036024;28;20079;-78
2022/07/28 02:21:04;;;;;;;10.18;3.42;;;666.30;1305.60;;;;;;5036041;28;20017;-77
2022/07/28 02:23:31;;;;;;;11.18;3.83;;;666.30;1305.60;;;;;;5036057;28;20022;-78
2022/07/28 02:25:59;;;;;;;10.13;3.80;;;666.30;1305.60;;;;;;5036032;28;20041;-77
2022/07/28 02:28:27;;;;;;;14.50;3.50;;;666.30;1305.60;;;;;;5033337;28;20017;-76
2022/07/28 02:31:23;;;;;;;14.43;3.42;;;666.40;1331.20;;;;;;5035678;28;20390;-77
2022/07/28 02:33:50;;;;;;;13.25;4.10;;;666.40;1305.60;;;;;;5032940;28;20032;-76
2022/07/28 02:36:39;;;;;;;9.20;2.78;;;666.30;1305.60;;;;;;5051495;28;20030;-75
2022/07/28 02:39:07;;;;;;;11.13;3.17;;;666.30;1331.20;;;;;;5033173;28;20013;-75
2022/07/28 02:41:39;;;;;;;9.35;3.28;;;666.30;1331.20;;;;;;5035733;28;20024;-76
2022/07/28 02:44:13;;;;;;;9.50;3.20;;;666.30;1331.20;;;;;;5035528;28;20024;-77
2022/07/28 02:46:49;;;;;;;8.90;3.65;;;666.30;1331.20;;;;;;5035412;28;20026;-76
2022/07/28 02:49:27;;;;;;;6.72;3.15;;;666.20;1331.20;;;;;;5035437;28;20203;-76
2022/07/28 02:51:54;;;;;;;6.50;2.92;;;666.30;1331.20;;;;;;5035449;28;20044;-76
2022/07/28 02:54:22;;;;;;;8.27;3.17;;;666.30;1331.20;;;;;;5035165;28;20123;-76
2022/07/28 02:56:49;;;;;;;6.63;2.80;;;666.30;1331.20;;;;;;5035725;28;20036;-75
2022/07/28 02:59:16;;;;;;;7.93;3.15;;;666.20;1356.80;;;;;;5032433;28;20033;-75
2022/07/28 03:01:43;;;;;;;4.82;3.17;;;666.20;1356.80;;;;;;5035537;28;20045;-75
2022/07/28 03:04:10;;;;;;;5.97;2.75;;;666.20;1356.80;;;;;;5035774;28;20113;-76
2022/07/28 03:06:37;;;;;;;6.97;2.97;;;666.30;1331.20;;;;;;5035448;28;20101;-76
2022/07/28 03:09:03;;;;;;;9.13;3.15;;;666.20;1356.80;;;;;;5034251;28;20076;-76
2022/07/28 03:11:28;;;;;;;4.90;3.35;;;666.20;1356.80;;;;;;5035374;28;20021;-77
2022/07/28 03:13:54;;;;;;;9.02;3.13;;;666.00;1356.80;;;;;;5035233;28;20402;-77
2022/07/28 03:16:20;;;;;;;6.25;2.80;;;666.00;1356.80;;;;;;5036692;28;20120;-76
2022/07/28 03:18:45;;;;;;;6.20;3.33;;;666.00;1382.40;;;;;;5035085;28;20049;-77
2022/07/28 03:21:11;;;;;;;6.78;2.88;;;666.00;1382.40;;;;;;5035213;28;20037;-76
2022/07/28 03:23:41;;;;;;;10.40;3.22;;;666.00;1356.80;;;;;;5035220;28;20028;-76
2022/07/28 03:26:29;;;;;;;5.97;2.90;;;665.80;1382.40;;;;;;5035112;28;20021;-77
2022/07/28 03:28:56;;;;;;;12.90;3.10;;;665.90;1382.40;;;;;;5035267;28;20021;-77
2022/07/28 03:31:24;;;;;;;7.95;3.00;;;665.90;1382.40;;;;;;5034723;28;20156;-76
2022/07/28 03:33:50;;;;;;;7.63;3.13;;;665.80;1382.40;;;;;;5034722;28;20022;-75
2022/07/28 03:36:25;;;;;;;7.13;3.03;;;665.90;1408.00;;;;;;5034514;28;20034;-75
2022/07/28 03:39:02;;;;;;;6.53;2.90;;;665.90;1408.00;;;;;;5034923;28;20391;-76
2022/07/28 03:41:31;;;;;;;7.00;3.03;;;665.90;1408.00;;;;;;5034785;28;20024;-76
2022/07/28 03:43:58;;;;;;;13.45;3.15;;;665.90;1408.00;;;;;;5034831;28;20043;-76
2022/07/28 03:46:25;;;;;;;8.50;2.95;;;665.70;1408.00;;;;;;5033256;28;20083;-76
2022/07/28 03:48:51;;;;;;;5.65;3.03;;;665.70;1408.00;;;;;;5034665;28;20017;-76
2022/07/28 03:51:17;;;;;;;6.70;2.72;;;665.90;1408.00;;;;;;5034770;28;20028;-76
2022/07/28 03:53:43;;;;;;;15.00;3.53;;;665.70;1408.00;;;;;;5034609;28;20025;-76
2022/07/28 03:56:09;;;;;;;5.75;2.70;;;665.70;1408.00;;;;;;5034598;28;20030;-77
2022/07/28 03:58:35;;;;;;;7.00;3.00;;;665.60;1433.60;;;;;;5034452;28;20028;-76
2022/07/28 04:01:01;;;;;;;7.32;3.25;;;665.80;1408.00;;;;;;5034415;28;20044;-75
2022/07/28 04:03:27;;;;;;;6.03;3.20;;;665.90;1408.00;;;;;;5034297;28;20104;-76
2022/07/28 04:05:56;;;;;;;5.50;2.85;;;665.80;1408.00;;;;;;5034373;28;20026;-76
2022/07/28 04:08:22;;;;;;;5.93;3.00;;;665.90;1408.00;;;;;;5034388;28;20033;-75
2022/07/28 04:10:48;;;;;;;14.60;4.00;;;665.90;1408.00;;;;;;5034258;28;20494;-76
2022/07/28 04:13:14;;;;;;;8.05;2.92;;;666.00;1408.00;;;;;;5034394;28;20053;-76
2022/07/28 04:15:39;;;;;;;8.45;2.80;;;666.00;1408.00;;;;;;5034150;28;20030;-76
2022/07/28 04:18:06;;;;;;;8.25;3.25;;;666.00;1408.00;;;;;;5032268;28;20489;-76
2022/07/28 04:20:32;;;;;;;7.13;3.00;;;665.90;1408.00;;;;;;5032858;28;20024;-76
2022/07/28 04:22:58;;;;;;;12.93;3.17;;;665.90;1433.60;;;;;;5034065;28;20029;-76
2022/07/28 04:25:26;;;;;;;6.93;2.85;;;665.90;1408.00;;;;;;5033967;28;20425;-76
2022/07/28 04:27:52;;;;;;;6.97;2.70;;;665.90;1433.60;;;;;;5033989;28;20030;-76
2022/07/28 04:30:23;;;;;;;7.70;2.95;;;666.50;1408.00;;;;;;5033676;28;20100;-76
2022/07/28 04:32:51;;;;;;;9.75;3.03;;;666.00;1408.00;;;;;;5020627;28;20017;-76
2022/07/28 04:35:17;;;;;;;12.98;2.90;;;666.00;1433.60;;;;;;5033794;28;20556;-78
2022/07/28 04:37:43;;;;;;;6.38;3.40;;;665.90;1433.60;;;;;;5043701;28;20029;-75
2022/07/28 04:40:11;;;;;;;9.07;3.05;;;665.90;1433.60;;;;;;5033750;28;20049;-77
2022/07/28 04:42:38;;;;;;;9.60;3.55;;;665.90;1433.60;;;;;;5033792;28;20026;-78
2022/07/28 04:45:05;;;;;;;5.90;3.25;;;665.90;1433.60;;;;;;5033442;28;20100;-76
2022/07/28 04:47:31;;;;;;;11.27;3.67;;;665.90;1433.60;;;;;;5033562;28;20025;-77
2022/07/28 04:49:57;;;;;;;6.80;3.30;;;665.90;1433.60;;;;;;5033526;28;20372;-74
2022/07/28 04:52:24;;;;;;;7.00;3.38;;;665.90;1433.60;;;;;;5033698;28;20021;-75
2022/07/28 04:54:50;;;;;;;8.50;3.30;;;666.00;1433.60;;;;;;5033199;28;20034;-74
2022/07/28 04:57:16;;;;;;;11.13;3.22;;;666.00;1433.60;;;;;;5033493;28;20028;-77
2022/07/28 04:59:41;;;;;;;8.93;3.83;;;666.00;1433.60;;;;;;5033167;28;20029;-76
2022/07/28 05:02:07;;;;;;;8.57;3.90;;;666.10;1433.60;;;;;;5033238;28;20037;-73
2022/07/28 05:04:33;;;;;;;9.15;3.22;;;666.00;1433.60;;;;;;5033243;28;20383;-73
2022/07/28 05:06:59;;;;;;;15.85;3.47;;;666.20;1459.20;;;;;;5033185;28;20037;-75
2022/07/28 05:09:25;;;;;;;13.20;4.47;;;666.20;1433.60;;;;;;5033291;28;20029;-74
2022/07/28 05:11:51;;;;;;;11.80;4.22;;;666.30;1433.60;;;;;;5032950;28;20112;-74
2022/07/28 05:14:17;;;;;;;14.57;4.43;;;666.30;1433.60;;;;;;5033061;28;20087;-73
2022/07/28 05:16:43;;;;;;;7.88;3.83;;;666.30;1459.20;;;;;;5033290;28;20048;-75
2022/07/28 05:19:09;;;;;;;12.02;4.40;;;666.50;1459.20;;;;;;5033073;28;20501;-75
2022/07/28 05:21:35;;;;;;;9.88;4.90;;;666.20;1484.80;;;;;;5032811;28;20028;-74
2022/07/28 05:24:01;;;;;;;11.75;3.97;;;666.20;1484.80;;;;;;5032895;28;20398;-76
2022/07/28 05:26:27;;;;;;;11.50;4.75;;;666.30;1484.80;;;;;;5033167;28;20029;-77
2022/07/28 05:28:54;;;;;;;43.15;7.63;;;666.50;1459.20;;;;;;5032996;28;20122;-76
2022/07/28 05:31:20;;;;;;;8.85;3.83;;;666.50;1459.20;;;;;;5032714;28;20076;-76
2022/07/28 05:33:45;;;;;;;10.15;4.75;;;691.20;1459.20;;;;;;5032886;28;20060;-77
2022/07/28 05:36:11;;;;;;;8.80;3.90;;;691.20;1459.20;;;;;;5033008;28;20049;-76
2022/07/28 05:38:37;;;;;;;8.77;4.07;;;691.20;1459.20;;;;;;5033014;28;20026;-78
2022/07/28 05:41:03;;;;;;;14.32;4.78;;;691.30;1459.20;;;;;;5032949;28;20017;-76
2022/07/28 05:43:29;;;;;;;35.03;6.32;;;691.30;1433.60;;;;;;5032945;28;20372;-76
2022/07/28 05:45:54;;;;;;;132.30;13.77;;;691.40;1433.60;;;;;;5032800;28;20017;-77
2022/07/28 05:48:21;;;;;;;15.65;4.65;;;691.40;1433.60;;;;;;5032896;28;20051;-78
2022/07/28 05:50:50;;;;;;;31.85;5.70;;;691.30;1408.00;;;;;;5047831;28;20479;-77
2022/07/28 05:53:16;;;;;;;14.55;4.47;;;691.60;1408.00;;;;;;5033043;28;20028;-77
2022/07/28 05:55:43;;;;;;;11.65;5.38;;;691.60;1408.00;;;;;;5032690;28;20475;-78
2022/07/28 05:58:08;;;;;;;12.55;5.05;;;691.70;1408.00;;;;;;5032779;28;20022;-78
2022/07/28 06:00:34;;;;;;;12.27;3.90;;;691.70;1408.00;;;;;;5031410;28;20034;-77
2022/07/28 06:03:03;;;;;;;11.88;3.88;;;691.70;1408.00;;;;;;5032394;28;20083;-77
2022/07/28 06:05:30;;;;;;;7.70;3.35;;;691.70;1433.60;;;;;;5032406;28;20387;-78
2022/07/28 06:07:57;;;;;;;10.75;3.25;;;691.70;1433.60;;;;;;5032357;28;20214;-78
2022/07/28 06:10:24;;;;;;;11.75;4.13;;;691.60;1408.00;;;;;;5032725;28;20048;-78
2022/07/28 06:12:55;;;;;;;14.18;3.70;;;691.70;1408.00;;;;;;5032602;28;20025;-78
2022/07/28 06:15:26;;;;;;;15.95;4.78;;;691.70;1408.00;;;;;;5032690;28;20037;-79
2022/07/28 06:17:54;;;;;;;9.13;3.70;;;691.70;1433.60;;;;;;5032665;28;20036;-77
2022/07/28 06:20:22;;;;;;;11.60;3.53;;;691.70;1408.00;;;;;;5032552;28;20032;-78
2022/07/28 06:22:51;;;;;;;11.05;3.30;;;691.80;1433.60;;;;;;5031253;28;20081;-78
2022/07/28 06:25:22;;;;;;;16.83;4.43;;;691.80;1408.00;;;;;;5047846;28;20021;-78
2022/07/28 06:27:50;;;;;;;9.55;3.55;;;691.90;1408.00;;;;;;5032306;28;20033;-78
2022/07/28 06:30:16;;;;;;;11.30;3.72;;;692.00;1408.00;;;;;;5032260;28;20041;-77
2022/07/28 06:32:43;;;;;;;10.48;3.70;;;692.10;1408.00;;;;;;5032598;28;20026;-79
2022/07/28 06:35:09;;;;;;;6.93;2.70;;;692.00;1408.00;;;;;;5035478;28;20087;-79
2022/07/28 06:37:35;;;;;;;10.75;3.70;;;692.10;1408.00;;;;;;5034587;28;20018;-78
2022/07/28 06:40:01;;;;;;;8.43;3.15;;;716.80;1408.00;;;;;;5048091;28;20137;-77
2022/07/28 06:42:27;;;;;;;7.55;3.50;;;716.80;1408.00;;;;;;5031101;28;20356;-77
2022/07/28 06:44:53;;;;;;;10.55;3.67;;;716.80;1408.00;;;;;;5035894;28;20052;-77
2022/07/28 06:47:19;;;;;;;11.85;3.97;;;716.80;1382.40;;;;;;5035665;28;20475;-78
2022/07/28 06:49:45;;;;;;;9.50;3.30;;;716.80;1433.60;;;;;;5034712;28;20040;-78
2022/07/28 06:52:11;;;;;;;9.55;3.90;;;716.80;1408.00;;;;;;5035552;28;20014;-78
2022/07/28 06:54:37;;;;;;;8.32;3.50;;;716.80;1408.00;;;;;;5035344;28;20056;-78
2022/07/28 06:57:03;;;;;;;5.55;3.10;;;716.90;1433.60;;;;;;5035381;28;20017;-78
2022/07/28 06:59:29;;;;;;;13.00;3.97;;;717.00;1433.60;;;;;;5035382;28;20045;-78
2022/07/28 07:02:00;;;;;;;11.07;3.75;;;717.10;1433.60;;;;;;5033794;28;20042;-78
2022/07/28 07:04:27;;;;;;;9.77;4.00;;;717.20;1408.00;;;;;;5047919;28;20065;-78
2022/07/28 07:06:52;;;;;;;16.40;3.95;;;717.20;1408.00;;;;;;5032209;28;20547;-78
2022/07/28 07:09:18;;;;;;;12.93;3.88;;;717.20;1382.40;;;;;;5034959;28;20112;-77
2022/07/28 07:11:44;;;;;;;10.45;4.10;;;717.30;1382.40;;;;;;5050464;28;20040;-79
2022/07/28 07:14:10;;;;;;;12.13;3.63;;;717.30;1382.40;;;;;;5034854;28;20045;-76
2022/07/28 07:16:35;;;;;;;12.45;3.72;;;717.20;1408.00;;;;;;5032382;28;20540;-78
2022/07/28 07:19:01;;;;;;;8.57;3.35;;;717.30;1408.00;;;;;;5034859;28;20080;-78
2022/07/28 07:21:27;;;;;;;8.07;4.57;;;717.40;1408.00;;;;;;5034957;28;20074;-77
2022/07/28 07:23:53;;;;;;;10.25;5.53;;;717.40;1408.00;;;;;;5034888;28;20498;-77
2022/07/28 07:26:18;;;;;;;13.10;5.35;;;717.40;1382.40;;;;;;5033470;28;20034;-78
2022/07/28 07:28:44;;;;;;;13.77;3.90;;;717.40;1382.40;;;;;;5034606;28;20033;-78
2022/07/28 07:31:10;;;;;;;8.82;3.35;;;717.40;1382.40;;;;;;5049803;28;20048;-78
2022/07/28 07:33:35;;;;;;;11.88;3.53;;;717.40;1382.40;;;;;;5034801;28;20026;-79
2022/07/28 07:36:01;;;;;;;14.50;4.55;;;717.40;1382.40;;;;;;5034777;28;20111;-78
2022/07/28 07:38:27;;;;;;;10.65;3.40;;;717.50;1382.40;;;;;;5035013;28;20383;-78
2022/07/28 07:40:53;;;;;;;12.48;4.30;;;717.40;1408.00;;;;;;5034866;28;20021;-75
2022/07/28 07:43:18;;;;;;;7.53;3.28;;;717.40;1408.00;;;;;;5034829;28;20129;-78
2022/07/28 07:45:44;;;;;;;14.32;4.38;;;717.40;1408.00;;;;;;5034255;28;20542;-76
2022/07/28 07:48:10;;;;;;;10.75;3.95;;;717.40;1408.00;;;;;;5034822;28;20025;-76
2022/07/28 07:50:37;;;;;;;17.02;3.72;;;717.40;1382.40;;;;;;5034701;28;20025;-75
2022/07/28 07:53:03;;;;;;;9.45;3.78;;;717.40;1408.00;;;;;;5034491;28;20101;-77
2022/07/28 07:55:29;;;;;;;9.77;3.60;;;717.50;1408.00;;;;;;5034723;28;20099;-76
2022/07/28 07:57:55;;;;;;;13.18;3.55;;;717.40;1382.40;;;;;;5034444;28;20027;-76
2022/07/28 08:00:21;;;;;;;8.52;3.15;;;717.50;1382.40;;;;;;5034354;28;20049;-78
2022/07/28 08:02:47;;;;;;;7.80;3.38;;;717.50;1382.40;;;;;;5034471;28;20061;-76
2022/07/28 08:05:14;;;;;;;9.80;3.42;;;717.50;1382.40;;;;;;5034359;28;20475;-76
2022/07/28 08:07:40;;;;;;;4.90;3.45;;;717.50;1382.40;;;;;;5034353;28;20067;-76
2022/07/28 08:10:06;;;;;;;10.48;4.28;;;717.50;1382.40;;;;;;5034354;28;20025;-75
2022/07/28 08:12:32;;;;;;;11.25;4.32;;;717.50;1408.00;;;;;;5034305;28;20498;-76
2022/07/28 08:14:58;;;;;;;10.50;4.57;;;717.60;1382.40;;;;;;5033635;28;20037;-79
2022/07/28 08:17:24;;;;;;;19.20;4.72;;;717.50;1408.00;;;;;;5034336;28;20017;-79
2022/07/28 08:19:50;;;;;;;9.48;4.05;;;717.50;1382.40;;;;;;5033589;28;20021;-78
2022/07/28 08:22:16;;;;;;;11.68;4.18;;;717.50;1382.40;;;;;;5033725;28;20021;-77
2022/07/28 08:24:42;;;;;;;14.43;3.80;;;717.50;1382.40;;;;;;5033651;28;20022;-78
2022/07/28 08:27:08;;;;;;;18.15;4.72;;;717.60;1382.40;;;;;;5033480;28;21396;-77
2022/07/28 08:29:34;;;;;;;11.30;4.38;;;717.50;1382.40;;;;;;5048666;28;20029;-76
2022/07/28 08:32:02;;;;;;;6.75;3.17;;;717.60;1408.00;;;;;;5046955;28;20026;-77
2022/07/28 08:34:28;;;;;;;7.30;3.53;;;717.70;1382.40;;;;;;5020642;28;20087;-78
2022/07/28 08:36:54;;;;;;;9.25;3.83;;;742.40;1408.00;;;;;;5033814;28;20022;-78
2022/07/28 08:39:20;;;;;;;10.70;4.10;;;717.70;1382.40;;;;;;5032292;28;20032;-78
2022/07/28 08:42:03;;;;;;;8.75;4.00;;;742.40;1408.00;;;;;;5033799;28;20426;-77
2022/07/28 08:44:53;;;;;;;9.00;3.88;;;742.40;1433.60;;;;;;5033498;28;20022;-77
2022/07/28 08:47:20;;;;;;;9.70;3.95;;;742.40;1459.20;;;;;;5033537;28;20029;-77
2022/07/28 08:49:47;;;;;;;7.45;4.15;;;742.40;1433.60;;;;;;5031899;28;20111;-77
2022/07/28 08:52:13;;;;;;;17.80;5.43;;;742.50;1433.60;;;;;;5033170;28;20013;-78
2022/07/28 08:54:44;;;;;;;7.10;4.97;;;742.40;1408.00;;;;;;5033134;28;20036;-77
2022/07/28 08:57:17;;;;;;;9.85;4.78;;;742.40;1433.60;;;;;;5029891;28;20083;-78
2022/07/28 08:59:45;;;;;;;11.68;5.72;;;742.40;1433.60;;;;;;5048308;28;20482;-78
2022/07/28 09:02:11;;;;;;;13.57;6.10;;;742.50;1433.60;;;;;;5030671;28;20038;-78
2022/07/28 09:04:38;;;;;;;9.27;5.15;;;742.50;1433.60;;;;;;5032171;28;20052;-79
2022/07/28 09:07:05;;;;;;;11.50;4.95;;;742.50;1433.60;;;;;;5033163;28;20079;-79
2022/07/28 09:09:32;;;;;;;8.20;4.13;;;742.50;1459.20;;;;;;5033171;28;20356;-78
2022/07/28 09:12:01;;;;;;;10.38;3.60;;;742.40;1484.80;;;;;;5033229;28;20530;-78
2022/07/28 09:14:27;;;;;;;9.63;4.07;;;742.40;1459.20;;;;;;5033111;28;20052;-78
2022/07/28 09:16:53;;;;;;;11.38;3.72;;;742.40;1484.80;;;;;;5033384;28;20029;-78
2022/07/28 09:19:18;;;;;;;9.02;3.78;;;742.40;1484.80;;;;;;5033171;28;20494;-78
2022/07/28 09:21:44;;;;;;;6.97;3.97;;;742.40;1510.40;;;;;;5032665;28;20045;-78
2022/07/28 09:24:30;;;;;;;8.65;3.47;;;742.40;1510.40;;;;;;5032635;28;20127;-77
2022/07/28 09:27:01;;;;;;;5.30;3.50;;;717.70;1459.20;;;;;;5029954;28;20475;-77
2022/07/28 09:29:26;;;;;;;10.18;3.65;;;717.70;1459.20;;;;;;5032584;28;20032;-78
2022/07/28 09:31:53;;;;;;;6.63;3.38;;;717.60;1459.20;;;;;;5047851;28;20046;-77
2022/07/28 09:34:20;;;;;;;10.07;3.63;;;717.70;1459.20;;;;;;5032445;28;20053;-75
2022/07/28 09:36:46;;;;;;;15.95;4.25;;;717.70;1459.20;;;;;;5032607;28;20022;-75
2022/07/28 09:39:30;;;;;;;12.50;3.78;;;717.70;1484.80;;;;;;5032536;28;20482;-78
2022/07/28 09:41:56;;;;;;;7.00;3.38;;;717.50;1484.80;;;;;;5030046;28;20521;-78
2022/07/28 09:44:23;;;;;;;9.35;3.72;;;717.40;1484.80;;;;;;5032597;28;20021;-78
2022/07/28 09:46:49;;;;;;;10.93;4.13;;;717.20;1484.80;;;;;;5032761;28;20022;-77
2022/07/28 09:49:15;;;;;;;11.07;4.13;;;717.70;1484.80;;;;;;5032525;28;20026;-78
2022/07/28 09:51:41;;;;;;;12.82;4.25;;;717.40;1459.20;;;;;;5032377;28;20049;-77
2022/07/28 09:54:11;;;;;;;10.48;3.70;;;717.50;1484.80;;;;;;5047767;28;20021;-75
2022/07/28 09:56:39;;;;;;;9.10;3.78;;;717.70;1484.80;;;;;;5029849;28;20026;-76
2022/07/28 09:59:06;;;;;;;10.65;4.07;;;717.70;1459.20;;;;;;5032287;28;20009;-76
2022/07/28 10:01:33;;;;;;;7.50;3.42;;;717.60;1459.20;;;;;;5032533;28;20116;-79
2022/07/28 10:04:00;;;;;;;13.98;3.97;;;717.50;1459.20;;;;;;5032581;28;20029;-79
2022/07/28 10:06:31;;;;;;;7.05;3.67;;;717.50;1510.40;;;;;;5047741;28;20060;-80
2022/07/28 10:09:01;;;;;;;11.02;4.22;;;717.50;1536.00;;;;;;5050288;28;20021;-77
2022/07/28 10:11:29;;;;;;;12.32;4.10;;;717.40;1561.60;;;;;;5051719;28;20087;-78
2022/07/28 10:14:04;;;;;;;18.02;4.47;;;717.40;1536.00;;;;;;5036630;28;20021;-80
2022/07/28 10:16:35;;;;;;;9.20;4.22;;;717.40;1510.40;;;;;;5053425;28;20037;-82
2022/07/28 10:19:04;;;;;;;12.45;4.50;;;717.40;1510.40;;;;;;5036914;28;20143;-82
2022/07/28 10:21:34;;;;;;;6.55;3.97;;;717.40;1510.40;;;;;;5036396;28;20025;-81
2022/07/28 10:24:06;;;;;;;16.05;4.43;;;717.40;1510.40;;;;;;5033219;28;20024;-86
2022/07/28 10:26:37;;;;;;;11.60;4.68;;;717.40;1536.00;;;;;;5036478;28;20025;-83
2022/07/28 10:29:07;;;;;;;10.30;4.07;;;717.30;1561.60;;;;;;5034479;28;20088;-82
2022/07/28 10:31:37;;;;;;;13.30;4.15;;;717.10;1561.60;;;;;;5036241;28;20045;-82
2022/07/28 10:34:08;;;;;;;9.73;4.43;;;717.10;1561.60;;;;;;5035405;28;20034;-82
2022/07/28 10:36:35;;;;;;;14.00;3.90;;;717.10;1587.20;;;;;;5036198;28;20029;-81
2022/07/28 10:39:11;;;;;;;11.40;3.88;;;717.20;1587.20;;;;;;5051763;28;20029;-80
2022/07/28 10:41:42;;;;;;;13.68;4.25;;;717.20;1561.60;;;;;;5035335;28;20018;-82
2022/07/28 10:44:12;;;;;;;12.25;4.43;;;717.20;1561.60;;;;;;5034995;28;20024;-82
2022/07/28 10:46:40;;;;;;;11.52;4.80;;;717.20;1561.60;;;;;;5051756;28;20619;-82
2022/07/28 10:49:07;;;;;;;10.80;4.53;;;717.20;1561.60;;;;;;5051942;28;20022;-82
2022/07/28 10:51:33;;;;;;;17.40;4.53;;;717.30;1536.00;;;;;;5036160;28;20065;-79
2022/07/28 10:54:26;;;;;;;16.33;4.28;;;717.20;1561.60;;;;;;5051534;28;20022;-81
2022/07/28 10:56:55;;;;;;;11.55;4.18;;;717.20;1587.20;;;;;;5034891;28;20025;-81
2022/07/28 11:00:00;;;;;;;9.75;4.43;;;717.20;1587.20;;;;;;5048641;28;20076;-83
2022/07/28 11:02:53;;;;;;;7.93;4.10;;;717.20;1587.20;;;;;;5036048;28;20029;-84
2022/07/28 11:05:39;;;;;;;12.55;3.92;;;717.30;1612.80;;;;;;5035758;28;20018;-81
2022/07/28 11:08:14;;;;;;;16.83;4.57;;;717.50;1587.20;;;;;;5049116;28;20022;-82
2022/07/28 11:10:43;;;;;;;9.50;3.90;;;717.60;1561.60;;;;;;5034869;28;20068;-81
2022/07/28 11:13:24;;;;;;;10.93;3.97;;;717.70;1536.00;;;;;;5051110;28;20034;-81
2022/07/28 11:15:50;;;;;;;14.18;4.30;;;742.40;1536.00;;;;;;5049552;28;20396;-83
2022/07/28 11:18:16;;;;;;;13.13;3.97;;;742.40;1510.40;;;;;;5050691;28;20053;-79
2022/07/28 11:20:56;;;;;;;11.27;4.38;;;742.60;1510.40;;;;;;5035083;28;20119;-82
2022/07/28 11:23:52;;;;;;;13.40;4.47;;;742.60;1484.80;;;;;;5030173;28;20034;-83
2022/07/28 11:26:23;;;;;;;14.95;4.85;;;742.80;1484.80;;;;;;4993643;28;20026;-80
2022/07/28 11:29:11;;;;;;;15.43;5.90;;;742.90;1459.20;;;;;;4977654;28;20038;-81
2022/07/28 11:31:45;;;;;;;14.05;5.28;;;743.10;1459.20;;;;;;4993894;28;20081;-83
2022/07/28 11:34:12;;;;;;;11.52;4.75;;;743.20;1433.60;;;;;;4992300;28;20026;-81
2022/07/28 11:36:56;;;;;;;12.05;4.80;;;743.30;1433.60;;;;;;4993673;28;20034;-80
2022/07/28 11:39:28;;;;;;;14.10;4.40;;;768.20;1382.40;;;;;;4992994;28;20034;-80
2022/07/28 11:41:54;;;;;;;10.32;4.43;;;768.10;1382.40;;;;;;4992937;28;20416;-83
2022/07/28 11:44:24;;;;;;;8.60;4.05;;;768.30;1382.40;;;;;;4993405;28;20045;-81
2022/07/28 11:47:13;;;;;;;16.77;4.60;;;768.30;1356.80;;;;;;4993571;28;20023;-83
2022/07/28 11:49:45;;;;;;;6.15;4.40;;;768.30;1356.80;;;;;;4948202;28;20032;-77
2022/07/28 11:52:47;;;;;;;7.72;4.03;;;768.40;1331.20;;;;;;4955729;28;20514;-79
2022/07/28 11:56:01;;;;;;;16.73;4.35;;;768.40;1331.20;;;;;;4869015;29;20052;-82
2022/07/28 11:58:30;;;;;;;21.25;4.68;;;768.60;1331.20;;;;;;4868880;29;20128;-76
2022/07/28 12:01:53;;;;;;;7.25;4.82;;;768.70;1305.60;;;;;;4868289;29;20526;-75
2022/07/28 12:04:58;;;;;;;11.30;5.22;;;768.90;1305.60;;;;;;4862618;29;20049;-76
2022/07/28 12:08:23;;;;;;;11.70;5.60;;;768.90;1280.00;;;;;;4862121;29;20492;-75
2022/07/28 12:10:49;;;;;;;11.25;6.88;;;768.90;1254.40;;;;;;4829467;29;20258;-75
2022/07/28 12:13:34;;;;;;;12.48;5.82;;;793.90;1254.40;;;;;;4832276;29;20038;-76
2022/07/28 12:16:06;;;;;;;9.43;5.38;;;793.80;1254.40;;;;;;4828601;29;20062;-75
2022/07/28 12:18:41;;;;;;;9.05;4.18;;;793.80;1254.40;;;;;;4831437;29;20038;-75
2022/07/28 12:21:06;;;;;;;8.75;4.75;;;793.90;1254.40;;;;;;4829137;29;20034;-77
2022/07/28 12:23:37;;;;;;;9.13;4.68;;;793.90;1254.40;;;;;;4831465;29;20444;-76
2022/07/28 12:27:02;;;;;;;8.23;3.75;;;794.00;1254.40;;;;;;4830844;29;20049;-76
2022/07/28 12:32:57;;;;;;;6.85;3.35;;;794.00;1305.60;;;;;;5023435;23;20095;-76